Time;durP1;ratioP1;P1;durP2;ratioP2;P2;SDS_P1;SDS_P2;PMS_P1;PMS_P2;Temp;Humidity;BMP_temperature;BMP_pressure;BME280_temperature;BME280_humidity;BME280_pressure;Samples;Min_cycle;Max_cycle;Signal;HPM_P1;HPM_P2
2022/11/01 00:02:09;;;;;;;0.30;0.30;;;24.30;71.00;;;24.52;53.00;95109.09;4986705;28;20193;-81
2022/11/01 00:04:37;;;;;;;0.60;0.60;;;24.30;70.90;;;24.53;52.99;95109.91;5019329;28;20200;-81
2022/11/01 00:07:05;;;;;;;0.38;0.38;;;24.40;71.00;;;24.48;52.92;95102.69;5036282;28;20678;-81
2022/11/01 00:09:32;;;;;;;0.40;0.40;;;24.40;70.90;;;24.47;53.06;95093.03;5019415;28;20189;-81
2022/11/01 00:11:59;;;;;;;0.30;0.30;;;24.40;70.90;;;24.50;53.29;95097.06;5002820;28;20184;-81
2022/11/01 00:14:27;;;;;;;0.50;0.50;;;24.40;70.80;;;24.49;53.33;95090.91;5002622;28;20265;-81
2022/11/01 00:16:54;;;;;;;0.50;0.50;;;24.40;70.70;;;24.50;52.91;95089.00;5002515;28;20204;-81
2022/11/01 00:19:22;;;;;;;0.50;0.50;;;24.40;70.70;;;24.52;53.23;95098.38;5003139;28;20572;-81
2022/11/01 00:21:49;;;;;;;0.40;0.40;;;24.40;70.70;;;24.56;52.92;95102.13;5002427;28;20236;-81
2022/11/01 00:24:16;;;;;;;0.40;0.40;;;24.40;70.60;;;24.52;52.77;95082.28;5018856;28;20291;-81
2022/11/01 00:26:43;;;;;;;0.50;0.50;;;24.40;70.60;;;24.56;52.71;95096.75;5002266;28;20212;-81
2022/11/01 00:29:12;;;;;;;0.30;0.30;;;24.40;70.50;;;24.56;52.40;95096.75;5002571;28;20627;-81
2022/11/01 00:31:39;;;;;;;0.40;0.40;;;24.40;70.50;;;24.57;52.79;95097.56;5019284;28;20596;-81
2022/11/01 00:34:06;;;;;;;0.40;0.40;;;24.40;70.40;;;24.57;52.72;95094.88;4986410;28;20214;-81
2022/11/01 00:36:35;;;;;;;0.43;0.43;;;24.40;70.30;;;24.58;52.40;95089.25;5002166;28;20207;-81
2022/11/01 00:39:03;;;;;;;0.40;0.40;;;24.40;70.30;;;24.54;52.65;95082.03;5002437;28;20624;-81
2022/11/01 00:41:31;;;;;;;0.40;0.40;;;24.40;70.30;;;24.52;52.85;95076.13;5018242;28;20261;-81
2022/11/01 00:43:58;;;;;;;0.40;0.40;;;24.40;70.20;;;24.56;52.26;95086.03;5001964;28;20208;-81
2022/11/01 00:46:25;;;;;;;0.45;0.45;;;24.40;71.10;;;24.55;52.18;95078.28;5018397;28;20688;-81
2022/11/01 00:48:52;;;;;;;0.40;0.40;;;24.40;70.20;;;24.54;52.36;95072.09;4985862;28;20295;-82
2022/11/01 00:51:20;;;;;;;0.35;0.35;;;24.40;70.20;;;24.54;52.26;95076.66;5018101;28;20212;-81
2022/11/01 00:53:47;;;;;;;0.40;0.40;;;24.40;70.10;;;24.52;52.63;95074.25;5002369;28;20204;-81
2022/11/01 00:56:14;;;;;;;0.40;0.40;;;24.40;70.10;;;24.52;52.58;95074.25;5018341;28;20628;-81
2022/11/01 00:58:41;;;;;;;0.40;0.40;;;24.40;70.00;;;24.51;52.08;95069.16;4985629;28;20205;-81
2022/11/01 01:01:09;;;;;;;0.30;0.30;;;24.40;70.00;;;24.60;52.23;95078.25;5001879;28;20218;-78
2022/11/01 01:03:37;;;;;;;0.30;0.30;;;24.40;70.00;;;24.56;52.24;95078.00;5018107;28;20270;-80
2022/11/01 01:06:05;;;;;;;0.45;0.45;;;24.40;70.00;;;24.59;52.19;95079.31;4985662;28;20220;-81
2022/11/01 01:08:32;;;;;;;0.40;0.40;;;24.40;70.90;;;24.60;51.82;95081.72;5001875;28;20255;-81
2022/11/01 01:10:59;;;;;;;0.30;0.30;;;24.40;69.90;;;24.54;51.98;95074.00;5001325;28;20196;-81
2022/11/01 01:13:26;;;;;;;0.40;0.40;;;24.40;69.90;;;24.54;52.09;95072.09;5001545;28;20200;-80
2022/11/01 01:15:53;;;;;;;0.30;0.30;;;24.40;69.90;;;24.59;51.93;95082.00;5018090;28;20192;-78
2022/11/01 01:18:21;;;;;;;0.30;0.30;;;24.40;69.80;;;24.59;52.00;95077.44;5017896;28;20195;-80
2022/11/01 01:20:48;;;;;;;0.30;0.30;;;24.40;69.80;;;24.54;51.95;95074.00;5001610;28;20219;-80
2022/11/01 01:23:17;;;;;;;0.30;0.30;;;24.40;69.70;;;24.56;51.94;95071.81;5017924;28;20207;-81
2022/11/01 01:25:46;;;;;;;0.45;0.45;;;24.50;69.80;;;24.60;51.76;95087.06;5017518;28;20650;-81
2022/11/01 01:28:14;;;;;;;0.40;0.40;;;24.40;69.70;;;24.56;52.03;95067.28;5001476;28;20303;-81
2022/11/01 01:30:42;;;;;;;0.38;0.38;;;24.50;69.70;;;24.60;51.62;95076.34;5017815;28;20215;-81
2022/11/01 01:33:11;;;;;;;0.30;0.30;;;24.40;69.70;;;24.59;51.81;95068.59;5017519;28;20210;-81
2022/11/01 01:35:40;;;;;;;0.32;0.32;;;24.50;69.70;;;24.60;51.72;95068.31;5001286;28;20207;-81
2022/11/01 01:38:11;;;;;;;0.40;0.40;;;24.40;69.60;;;24.48;51.73;95050.97;5018534;28;20174;-81
2022/11/01 01:40:39;;;;;;;0.30;0.30;;;24.50;69.60;;;24.59;51.82;95058.66;5017850;28;20188;-80
2022/11/01 01:43:11;;;;;;;0.30;0.30;;;24.40;69.50;;;24.60;51.38;95067.53;5001273;28;20204;-80
2022/11/01 01:45:40;;;;;;;0.30;0.30;;;24.40;69.30;;;24.61;51.81;95061.88;5001456;28;20176;-80
2022/11/01 01:48:17;;;;;;;0.50;0.50;;;24.40;69.40;;;24.58;51.31;95056.25;5001286;28;20209;-80
2022/11/01 01:50:54;;;;;;;0.40;0.40;;;24.50;69.40;;;24.61;51.25;95061.88;4985235;28;20188;-81
2022/11/01 01:53:32;;;;;;;0.40;0.40;;;24.50;69.40;;;24.55;51.50;95049.56;5001776;28;20195;-81
2022/11/01 01:56:07;;;;;;;0.50;0.50;;;24.50;69.40;;;24.59;51.26;95050.59;5017321;28;20235;-79
2022/11/01 01:58:46;;;;;;;0.30;0.30;;;24.50;69.40;;;24.60;51.65;95054.09;5001195;28;20637;-79
2022/11/01 02:01:13;;;;;;;0.40;0.40;;;24.50;69.30;;;24.60;51.51;95057.59;5017520;28;20607;-79
2022/11/01 02:03:41;;;;;;;0.40;0.40;;;24.50;69.30;;;24.60;51.78;95041.50;5017352;28;20200;-79
2022/11/01 02:06:16;;;;;;;0.40;0.40;;;24.40;69.20;;;24.60;51.37;95048.75;4984848;28;20232;-80
2022/11/01 02:08:57;;;;;;;0.50;0.50;;;24.50;69.20;;;24.59;51.51;95050.59;5017599;28;20336;-80
2022/11/01 02:11:24;;;;;;;0.30;0.30;;;24.40;69.10;;;24.58;51.52;95046.34;5017532;28;20198;-80
2022/11/01 02:13:52;;;;;;;0.30;0.30;;;24.40;69.10;;;24.54;51.60;95039.91;5001368;28;20193;-80
2022/11/01 02:16:41;;;;;;;0.50;0.50;;;24.40;69.10;;;24.59;51.17;95053.28;5017424;28;20280;-79
2022/11/01 02:19:11;;;;;;;0.50;0.50;;;24.40;69.10;;;24.59;51.25;95042.56;5034636;28;20649;-79
2022/11/01 02:22:06;;;;;;;0.40;0.40;;;24.40;69.00;;;24.59;51.43;95036.41;5017667;28;20612;-80
2022/11/01 02:24:56;;;;;;;0.43;0.43;;;24.40;69.00;;;24.55;51.39;95041.53;5021471;28;20557;-80
2022/11/01 02:27:39;;;;;;;0.40;0.40;;;24.40;69.00;;;24.56;51.26;95045.00;5021201;28;20215;-78
2022/11/01 02:30:17;;;;;;;0.35;0.35;;;24.50;69.10;;;24.56;51.19;95039.63;5020807;28;20228;-80
2022/11/01 02:33:11;;;;;;;0.40;0.40;;;24.40;68.80;;;24.54;51.13;95039.13;5004661;28;20181;-80
2022/11/01 02:35:53;;;;;;;0.40;0.40;;;24.40;68.80;;;24.51;51.18;95032.44;5020621;28;20202;-81
2022/11/01 02:38:38;;;;;;;0.40;0.40;;;24.40;68.80;;;24.54;51.14;95036.44;5020838;28;20188;-81
2022/11/01 02:41:18;;;;;;;0.40;0.40;;;24.40;68.90;;;24.50;50.89;95036.19;4988394;28;20258;-81
2022/11/01 02:44:02;;;;;;;0.40;0.40;;;24.40;68.80;;;24.52;50.97;95044.75;5021146;28;20204;-81
2022/11/01 02:49:22;;;;;;;0.47;0.47;;;24.40;68.80;;;24.48;51.05;95035.66;5006735;28;20678;-81
2022/11/01 02:51:51;;;;;;;0.45;0.45;;;24.40;68.80;;;24.53;51.04;95040.19;5020610;28;20188;-80
2022/11/01 02:54:31;;;;;;;0.50;0.50;;;24.40;68.90;;;24.50;50.90;95038.06;5004224;28;20189;-80
2022/11/01 02:57:29;;;;;;;0.35;0.35;;;24.40;68.80;;;24.52;51.16;95039.38;5004556;28;20192;-79
2022/11/01 03:00:07;;;;;;;0.30;0.30;;;24.40;68.80;;;24.51;50.89;95042.34;5020445;28;20200;-80
2022/11/01 03:02:43;;;;;;;0.30;0.30;;;24.40;68.80;;;24.51;51.04;95040.50;5020139;28;20196;-81
2022/11/01 03:05:24;;;;;;;0.50;0.50;;;24.40;68.70;;;24.50;50.83;95044.25;4987870;28;20226;-79
2022/11/01 03:07:58;;;;;;;0.50;0.50;;;24.40;68.70;;;24.48;50.87;95034.88;5020591;28;20259;-80
2022/11/01 03:10:37;;;;;;;0.40;0.40;;;24.40;68.70;;;24.51;51.00;95045.03;5020362;28;20176;-81
2022/11/01 03:13:31;;;;;;;0.40;0.40;;;24.30;68.60;;;24.50;50.79;95041.56;5020491;28;20209;-81
2022/11/01 03:16:19;;;;;;;0.40;0.40;;;24.30;68.60;;;24.49;51.01;95045.31;5037332;28;20242;-81
2022/11/01 03:19:20;;;;;;;0.30;0.30;;;24.30;69.40;;;24.46;50.96;95046.69;5003726;28;20208;-81
2022/11/01 03:22:19;;;;;;;0.32;0.32;;;24.40;68.60;;;24.41;50.99;95044.03;5020062;28;20230;-79
2022/11/01 03:25:39;;;;;;;0.40;0.40;;;24.30;68.50;;;24.37;50.88;95036.81;5003628;28;20212;-80
2022/11/01 03:28:24;;;;;;;0.50;0.50;;;24.30;68.60;;;24.44;50.65;95048.03;4908501;29;20218;-80
2022/11/01 03:31:07;;;;;;;0.40;0.40;;;24.40;68.50;;;24.40;50.81;95044.28;4906845;29;20191;-80
2022/11/01 03:33:47;;;;;;;0.52;0.52;;;24.30;68.40;;;24.43;50.84;95049.91;4992674;28;20201;-81
2022/11/01 03:36:18;;;;;;;0.50;0.50;;;24.30;68.50;;;24.45;50.94;95050.44;5003590;28;20181;-81
2022/11/01 03:38:58;;;;;;;0.30;0.30;;;24.30;68.50;;;24.41;50.68;95041.34;5003474;28;20199;-79
2022/11/01 03:41:30;;;;;;;0.50;0.50;;;24.30;68.50;;;24.41;50.77;95040.53;5003839;28;20646;-80
2022/11/01 03:43:58;;;;;;;0.40;0.40;;;24.30;69.50;;;24.48;50.47;95045.59;5019667;28;20260;-80
2022/11/01 03:46:26;;;;;;;0.40;0.40;;;24.30;68.50;;;24.45;50.83;95036.25;5003138;28;20203;-81
2022/11/01 03:48:53;;;;;;;0.30;0.30;;;24.30;68.50;;;24.47;50.51;95042.09;5019764;28;20277;-81
2022/11/01 03:51:20;;;;;;;0.40;0.40;;;24.30;68.50;;;24.48;50.35;95046.38;5019566;28;20184;-79
2022/11/01 03:53:47;;;;;;;0.32;0.32;;;24.30;68.40;;;24.47;50.38;95047.47;5003156;28;20223;-79
2022/11/01 03:56:14;;;;;;;0.40;0.40;;;24.30;68.40;;;24.48;50.55;95045.59;5019543;28;20276;-79
2022/11/01 03:58:45;;;;;;;0.40;0.40;;;24.30;68.40;;;24.47;50.70;95047.47;4986920;28;20218;-78
2022/11/01 04:01:16;;;;;;;0.38;0.38;;;24.30;68.40;;;24.40;50.68;95030.88;5004094;28;20188;-79
2022/11/01 04:03:44;;;;;;;0.32;0.32;;;24.30;68.30;;;24.44;50.40;95043.47;5019653;28;20176;-79
2022/11/01 04:06:11;;;;;;;0.50;0.50;;;24.30;68.40;;;24.46;50.42;95043.19;4986648;28;20643;-79
2022/11/01 04:08:40;;;;;;;0.50;0.50;;;24.30;68.40;;;24.48;50.55;95043.72;5002815;28;20258;-79
2022/11/01 04:11:07;;;;;;;0.40;0.40;;;24.30;68.30;;;24.48;50.52;95037.56;5003018;28;20201;-79
2022/11/01 04:13:35;;;;;;;0.30;0.30;;;24.30;68.30;;;24.49;50.31;95037.28;5019383;28;20222;-79
2022/11/01 04:21:35;;;;;;;0.40;0.40;;;24.30;68.20;;;24.45;50.48;95041.59;5021361;28;20236;-78
2022/11/01 04:24:03;;;;;;;0.30;0.30;;;24.30;68.20;;;24.44;50.62;95040.78;5018956;28;20623;-79
2022/11/01 04:26:30;;;;;;;0.30;0.30;;;24.30;68.20;;;24.43;50.50;95044.53;5002527;28;20278;-80
2022/11/01 04:28:57;;;;;;;0.40;0.40;;;24.30;68.20;;;24.41;50.44;95036.00;4986270;28;20206;-80
2022/11/01 04:31:31;;;;;;;0.40;0.40;;;24.30;68.10;;;24.45;50.20;95041.59;5002275;28;20307;-80
2022/11/01 04:34:00;;;;;;;0.30;0.30;;;24.30;68.10;;;24.47;50.29;95039.41;5002268;28;20642;-80
2022/11/01 04:36:28;;;;;;;0.38;0.38;;;24.30;68.10;;;24.42;50.26;95031.41;5018603;28;20258;-80
2022/11/01 04:38:56;;;;;;;0.50;0.50;;;24.30;68.10;;;24.47;50.21;95042.09;5018616;28;20700;-80
2022/11/01 04:41:26;;;;;;;0.40;0.40;;;24.30;68.10;;;24.47;50.44;95039.41;5018353;28;20350;-80
2022/11/01 04:43:56;;;;;;;0.40;0.40;;;24.30;68.10;;;24.48;50.32;95030.31;5018269;28;20262;-80
2022/11/01 04:46:24;;;;;;;0.40;0.40;;;24.30;68.00;;;24.48;50.48;95046.38;5001438;28;20214;-80
2022/11/01 04:48:51;;;;;;;0.30;0.30;;;24.30;68.00;;;24.48;50.11;95037.56;5002049;28;20291;-80
2022/11/01 04:51:18;;;;;;;0.35;0.35;;;24.30;68.00;;;24.45;50.26;95036.25;5018377;28;20295;-79
2022/11/01 04:53:46;;;;;;;0.40;0.40;;;24.30;68.90;;;24.44;50.01;95032.75;4985760;28;20204;-80
2022/11/01 04:56:13;;;;;;;0.35;0.35;;;24.30;68.00;;;24.41;50.43;95027.94;5018384;28;20206;-80
2022/11/01 04:58:40;;;;;;;0.47;0.47;;;24.30;68.00;;;24.49;50.33;95036.47;5002119;28;20203;-80
2022/11/01 05:01:13;;;;;;;0.40;0.40;;;24.30;68.00;;;24.43;50.42;95028.44;5004025;28;20255;-80
2022/11/01 05:03:42;;;;;;;0.40;0.40;;;24.30;68.00;;;24.47;50.29;95036.75;5001805;28;20202;-80
2022/11/01 05:06:09;;;;;;;0.40;0.40;;;24.30;67.80;;;24.49;50.11;95036.47;5001950;28;20693;-80
2022/11/01 05:08:36;;;;;;;0.45;0.45;;;24.30;67.80;;;24.41;50.03;95019.91;5001584;28;20308;-79
2022/11/01 05:11:04;;;;;;;0.30;0.30;;;24.40;67.90;;;24.48;50.27;95034.88;4985481;28;20205;-80
2022/11/01 05:13:31;;;;;;;0.30;0.30;;;24.40;67.90;;;24.49;50.20;95044.53;5001914;28;20220;-80
2022/11/01 05:16:02;;;;;;;0.40;0.40;;;24.30;67.80;;;24.43;50.14;95033.03;5002001;28;20199;-79
2022/11/01 05:18:47;;;;;;;0.40;0.40;;;24.30;67.70;;;24.48;50.09;95041.03;5006527;28;20260;-79
2022/11/01 05:21:14;;;;;;;0.30;0.30;;;24.30;67.80;;;24.49;49.86;95039.16;5001651;28;20691;-78
2022/11/01 05:23:41;;;;;;;0.30;0.30;;;24.40;67.80;;;24.46;49.84;95041.31;5018733;28;20184;-78
2022/11/01 05:26:09;;;;;;;0.40;0.40;;;24.30;67.70;;;24.49;50.11;95041.84;5017932;28;20215;-79
2022/11/01 05:28:36;;;;;;;0.30;0.30;;;24.30;67.70;;;24.39;49.98;95018.53;5017584;28;20277;-80
2022/11/01 05:31:03;;;;;;;0.40;0.40;;;24.40;67.70;;;24.42;49.98;95024.16;5001301;28;20315;-80
2022/11/01 05:33:30;;;;;;;0.40;0.40;;;24.30;67.60;;;24.49;50.02;95044.53;5018316;28;20206;-80
2022/11/01 05:36:00;;;;;;;0.30;0.30;;;24.40;67.70;;;24.48;50.25;95041.03;5017842;28;20195;-80
2022/11/01 05:38:28;;;;;;;0.30;0.30;;;24.30;67.60;;;24.43;49.57;95030.34;5001661;28;20204;-80
2022/11/01 05:40:55;;;;;;;0.35;0.35;;;24.30;67.60;;;24.50;50.02;95040.75;4985326;28;20226;-81
2022/11/01 05:43:22;;;;;;;0.30;0.30;;;24.30;67.50;;;24.42;50.11;95034.88;5001302;28;20233;-81
2022/11/01 05:45:50;;;;;;;0.30;0.30;;;24.30;67.50;;;24.40;49.94;95038.91;5001727;28;20192;-80
2022/11/01 05:48:17;;;;;;;0.30;0.30;;;24.30;67.50;;;24.43;49.45;95038.38;5001213;28;20639;-81
2022/11/01 05:50:46;;;;;;;0.40;0.40;;;24.30;68.40;;;24.49;49.87;95052.56;5001652;28;20291;-81
2022/11/01 05:53:14;;;;;;;0.40;0.40;;;24.30;67.50;;;24.47;49.90;95050.16;5001309;28;20291;-81
2022/11/01 05:55:41;;;;;;;0.30;0.30;;;24.30;67.50;;;24.46;49.67;95057.41;5001328;28;20298;-80
2022/11/01 05:58:08;;;;;;;0.57;0.57;;;24.30;67.50;;;24.46;49.67;95049.34;5004184;28;20246;-81
2022/11/01 06:00:36;;;;;;;0.30;0.30;;;24.30;67.50;;;24.46;49.62;95049.34;5005339;28;20204;-81
2022/11/01 06:03:04;;;;;;;0.40;0.40;;;24.30;67.40;;;24.39;50.05;95040.81;4988979;28;20620;-80
2022/11/01 06:05:32;;;;;;;0.40;0.40;;;24.30;67.40;;;24.47;49.56;95055.50;4989137;28;20208;-80
2022/11/01 06:08:01;;;;;;;0.30;0.30;;;24.30;67.30;;;24.48;49.85;95057.13;5038532;28;20221;-80
2022/11/01 06:10:30;;;;;;;0.40;0.40;;;24.30;67.30;;;24.47;49.51;95058.19;5038149;28;20208;-79
2022/11/01 06:12:58;;;;;;;0.38;0.38;;;24.30;67.30;;;24.48;49.93;95059.81;5014091;28;20251;-79
2022/11/01 06:15:26;;;;;;;0.40;0.40;;;24.30;67.30;;;24.48;49.32;95061.69;5014450;28;20640;-79
2022/11/01 06:17:59;;;;;;;0.30;0.30;;;24.30;67.30;;;24.45;49.64;95063.84;5017790;28;20193;-80
2022/11/01 06:20:30;;;;;;;0.60;0.60;;;24.30;68.10;;;24.38;49.54;95046.47;4988007;28;20205;-79
2022/11/01 06:23:00;;;;;;;0.30;0.30;;;24.40;67.40;;;24.47;49.34;95066.22;5005010;28;20259;-79
2022/11/01 06:25:27;;;;;;;0.40;0.40;;;24.30;67.30;;;24.41;49.68;95068.16;4989547;28;20215;-79
2022/11/01 06:27:55;;;;;;;0.30;0.30;;;24.40;67.40;;;24.46;49.35;95076.16;5021535;28;20265;-80
2022/11/01 06:30:22;;;;;;;0.30;0.30;;;24.30;67.20;;;24.40;49.63;95077.28;4985968;28;20193;-79
2022/11/01 06:32:50;;;;;;;0.30;0.30;;;24.40;67.20;;;24.48;49.58;95075.88;5001354;28;20304;-80
2022/11/01 06:35:24;;;;;;;0.45;0.45;;;24.30;67.10;;;24.48;49.42;95086.59;5023893;28;20193;-77
2022/11/01 06:38:09;;;;;;;0.32;0.32;;;24.40;67.00;;;24.49;49.76;95092.78;4988404;28;20212;-76
2022/11/01 06:40:37;;;;;;;0.40;0.40;;;24.30;66.90;;;24.48;49.89;95089.28;5000975;28;20223;-75
2022/11/01 06:43:05;;;;;;;0.32;0.32;;;24.40;67.10;;;24.49;49.76;95093.59;5003192;28;20943;-76
2022/11/01 06:45:33;;;;;;;0.40;0.40;;;24.40;68.00;;;24.48;49.69;95088.50;4984876;28;20217;-77
2022/11/01 06:48:02;;;;;;;0.43;0.43;;;24.40;66.90;;;24.50;49.48;95105.91;5001818;28;20229;-78
2022/11/01 06:50:33;;;;;;;0.32;0.32;;;24.40;67.00;;;24.48;49.47;95108.06;5020807;28;20192;-80
2022/11/01 06:53:01;;;;;;;0.40;0.40;;;24.40;66.90;;;24.50;49.45;95103.22;4996524;28;20189;-80
2022/11/01 06:55:29;;;;;;;0.40;0.40;;;24.40;66.90;;;24.44;49.21;95097.09;5000793;28;20207;-79
2022/11/01 06:58:04;;;;;;;0.30;0.30;;;24.40;66.90;;;24.48;49.38;95104.59;4991821;28;20669;-77
2022/11/01 07:00:32;;;;;;;0.38;0.38;;;24.40;66.90;;;24.48;49.31;95102.69;5020340;28;20310;-78
2022/11/01 07:03:09;;;;;;;0.40;0.40;;;24.40;66.90;;;24.50;49.29;95111.28;5037227;28;20211;-80
2022/11/01 07:05:38;;;;;;;0.40;0.40;;;24.40;66.90;;;24.51;49.20;95118.25;5004723;28;20174;-79
2022/11/01 07:08:12;;;;;;;0.30;0.30;;;24.40;66.90;;;24.45;49.17;95105.94;5019894;28;20215;-79
2022/11/01 07:10:42;;;;;;;0.38;0.38;;;24.40;66.90;;;24.52;49.03;95122.50;5004496;28;20282;-79
2022/11/01 07:13:11;;;;;;;0.30;0.30;;;24.40;66.90;;;24.44;49.21;95105.13;5020680;28;20192;-79
2022/11/01 07:15:39;;;;;;;0.38;0.38;;;24.40;66.90;;;24.52;49.08;95124.41;5003912;28;20665;-79
2022/11/01 07:18:07;;;;;;;0.40;0.40;;;24.40;66.90;;;24.43;48.97;95108.09;5004467;28;20193;-79
2022/11/01 07:20:42;;;;;;;0.30;0.30;;;24.40;66.90;;;24.45;49.20;95117.47;5036875;28;20646;-79
2022/11/01 07:23:15;;;;;;;0.30;0.30;;;24.40;66.90;;;24.51;49.07;95138.88;5005022;28;20322;-79
2022/11/01 07:25:54;;;;;;;0.50;0.50;;;24.40;66.90;;;24.42;49.27;95134.09;5003837;28;20211;-79
2022/11/01 07:28:32;;;;;;;0.40;0.40;;;24.40;66.90;;;24.43;48.78;95133.00;5020604;28;20196;-79
2022/11/01 07:31:05;;;;;;;0.43;0.43;;;24.30;66.80;;;24.41;49.06;95137.88;5004211;28;20211;-80
2022/11/01 07:33:35;;;;;;;0.40;0.40;;;24.30;66.80;;;24.46;48.87;95145.06;5003688;28;20200;-80
2022/11/01 07:36:05;;;;;;;0.50;0.50;;;24.30;66.80;;;24.41;49.26;95131.69;5003884;28;20251;-80
2022/11/01 07:38:37;;;;;;;0.30;0.30;;;24.30;66.90;;;24.43;49.09;95149.09;5003698;28;20196;-80
2022/11/01 07:41:07;;;;;;;0.40;0.40;;;24.30;66.90;;;24.34;49.24;95133.84;5004366;28;20279;-80
2022/11/01 07:43:34;;;;;;;0.30;0.30;;;24.30;66.90;;;24.46;48.97;95155.78;5003591;28;20188;-80
2022/11/01 07:46:06;;;;;;;0.30;0.30;;;24.30;66.90;;;24.45;49.29;95151.53;5003963;28;20225;-79
2022/11/01 07:48:35;;;;;;;0.30;0.30;;;24.20;66.80;;;24.34;49.15;95142.72;5020189;28;20226;-79
2022/11/01 07:51:04;;;;;;;0.50;0.50;;;24.20;66.80;;;24.39;48.81;95150.72;4987347;28;20250;-79
2022/11/01 07:53:32;;;;;;;0.40;0.40;;;24.20;66.80;;;24.43;48.74;95167.88;5003787;28;20200;-79
2022/11/01 07:56:01;;;;;;;0.40;0.40;;;24.20;66.80;;;24.42;48.90;95173.50;5036040;28;20184;-79
2022/11/01 07:58:28;;;;;;;0.40;0.40;;;24.20;66.80;;;24.37;49.12;95166.28;4987105;28;20235;-79
2022/11/01 08:00:56;;;;;;;0.30;0.30;;;24.20;66.80;;;24.34;48.95;95164.16;5002985;28;20262;-79
2022/11/01 08:03:23;;;;;;;0.30;0.30;;;24.20;66.80;;;24.36;49.01;95166.56;4986923;28;20292;-79
2022/11/01 08:05:51;;;;;;;0.50;0.50;;;24.20;66.80;;;24.34;48.84;95171.38;5019681;28;20549;-79
2022/11/01 08:08:18;;;;;;;0.43;0.43;;;24.20;66.80;;;24.39;49.06;95174.03;4986593;28;20224;-79
2022/11/01 08:10:45;;;;;;;0.40;0.40;;;24.20;66.80;;;24.38;48.75;95164.41;5019033;28;20206;-79
2022/11/01 08:13:24;;;;;;;0.38;0.38;;;24.20;66.80;;;24.30;48.65;95165.75;5003553;28;20283;-79
2022/11/01 08:15:52;;;;;;;0.40;0.40;;;24.20;66.80;;;24.37;48.87;95187.72;5002697;28;20593;-79
2022/11/01 08:18:23;;;;;;;0.30;0.30;;;24.10;66.70;;;24.36;48.97;95183.44;5002925;28;20200;-79
2022/11/01 08:20:51;;;;;;;0.50;0.50;;;24.10;66.70;;;24.35;49.38;95192.56;4986011;28;20196;-79
2022/11/01 08:23:18;;;;;;;0.30;0.30;;;24.20;66.80;;;24.34;48.88;95185.59;5003058;28;20313;-79
2022/11/01 08:25:46;;;;;;;0.30;0.30;;;24.10;66.70;;;24.28;49.07;95181.34;5002488;28;20246;-79
2022/11/01 08:28:16;;;;;;;0.40;0.40;;;24.10;66.70;;;24.28;48.65;95178.66;5002733;28;20729;-79
2022/11/01 08:30:46;;;;;;;0.40;0.40;;;24.10;66.70;;;24.27;49.02;95185.09;4986369;28;20250;-78
2022/11/01 08:33:14;;;;;;;0.40;0.40;;;24.10;66.70;;;24.32;49.06;95189.63;4986461;28;20262;-77
2022/11/01 08:35:43;;;;;;;0.43;0.43;;;24.10;66.70;;;24.30;48.82;95182.66;5002341;28;20203;-79
2022/11/01 08:38:17;;;;;;;0.40;0.40;;;24.10;66.70;;;24.30;48.82;95190.72;5004475;28;20184;-79
2022/11/01 08:40:44;;;;;;;0.40;0.40;;;24.10;66.70;;;24.32;48.98;95186.97;5019352;28;20661;-79
2022/11/01 08:43:12;;;;;;;0.30;0.30;;;24.10;66.70;;;24.28;48.88;95182.13;5018544;28;20196;-79
2022/11/01 08:45:41;;;;;;;0.30;0.30;;;24.10;66.70;;;24.33;48.43;95193.91;5018708;28;20200;-79
2022/11/01 08:48:09;;;;;;;0.52;0.52;;;24.10;66.70;;;24.30;48.98;95196.06;5018236;28;20277;-79
2022/11/01 08:50:37;;;;;;;0.35;0.35;;;24.10;66.70;;;24.33;49.07;95208.13;5018741;28;20196;-78
2022/11/01 08:53:10;;;;;;;0.43;0.43;;;24.10;66.70;;;24.33;48.78;95218.03;5002454;28;20612;-79
2022/11/01 08:55:39;;;;;;;0.40;0.40;;;24.10;66.70;;;24.26;49.00;95205.72;5002917;28;20670;-79
2022/11/01 08:58:08;;;;;;;0.30;0.30;;;24.10;66.70;;;24.33;48.85;95209.97;5002475;28;20192;-79
2022/11/01 09:00:35;;;;;;;0.30;0.30;;;24.10;66.70;;;24.34;48.86;95195.50;4986088;28;20283;-79
2022/11/01 09:03:06;;;;;;;0.30;0.30;;;24.10;66.70;;;24.33;48.80;95200.06;5018648;28;20628;-78
2022/11/01 09:05:36;;;;;;;0.40;0.40;;;24.10;66.70;;;24.32;48.70;95189.63;5002121;28;20203;-79
2022/11/01 09:08:04;;;;;;;0.40;0.40;;;24.10;66.70;;;24.34;48.63;95196.31;5001688;28;20216;-77
2022/11/01 09:10:34;;;;;;;0.40;0.40;;;24.10;66.70;;;24.35;48.63;95197.13;5002120;28;20196;-77
2022/11/01 09:13:02;;;;;;;0.40;0.40;;;24.10;66.70;;;24.35;48.63;95211.34;5018175;28;20203;-77
2022/11/01 09:15:30;;;;;;;0.30;0.30;;;24.10;66.70;;;24.35;48.78;95210.53;5001760;28;20295;-77
2022/11/01 09:17:57;;;;;;;0.40;0.40;;;24.10;66.70;;;24.34;48.78;95207.06;5001717;28;20269;-78
2022/11/01 09:20:27;;;;;;;0.43;0.43;;;24.10;66.70;;;24.30;48.47;95203.28;5002134;28;20522;-77
2022/11/01 09:22:54;;;;;;;0.30;0.30;;;24.10;66.70;;;24.27;48.73;95193.91;5002038;28;20674;-78
2022/11/01 09:25:21;;;;;;;0.30;0.30;;;24.10;66.70;;;24.33;48.30;95193.91;5018613;28;20242;-78
2022/11/01 09:27:49;;;;;;;0.50;0.50;;;24.20;66.80;;;24.34;48.48;95200.88;5017936;28;20620;-78
2022/11/01 09:30:17;;;;;;;0.45;0.45;;;24.10;66.70;;;24.32;48.45;95200.34;5001921;28;20203;-78
2022/11/01 09:32:46;;;;;;;0.30;0.30;;;24.10;66.70;;;24.35;48.54;95199.81;5004567;28;20207;-78
2022/11/01 09:40:37;;;;;;;0.40;0.40;;;24.10;66.70;;;24.21;48.89;95213.75;5015560;28;20279;-77
2022/11/01 09:43:08;;;;;;;0.30;0.30;;;24.10;66.70;;;24.18;48.82;95227.72;4999622;28;20208;-77
2022/11/01 09:45:36;;;;;;;0.40;0.40;;;24.10;66.70;;;24.26;48.47;95229.84;5001593;28;20234;-77
2022/11/01 09:48:05;;;;;;;0.40;0.40;;;24.10;66.70;;;24.26;48.62;95237.88;5018133;28;20260;-77
2022/11/01 09:50:37;;;;;;;0.40;0.40;;;24.00;66.70;;;24.25;48.64;95230.91;5001578;28;20584;-77
2022/11/01 09:53:15;;;;;;;0.40;0.40;;;24.10;66.70;;;24.27;48.79;95231.44;5001670;28;20176;-77
2022/11/01 09:55:58;;;;;;;0.40;0.40;;;24.10;66.70;;;24.28;48.74;95226.91;5001131;28;20192;-77
2022/11/01 09:59:01;;;;;;;0.47;0.47;;;24.00;66.60;;;24.26;48.35;95237.88;5001289;28;20196;-77
2022/11/01 10:01:55;;;;;;;0.50;0.50;;;24.00;66.60;;;24.23;48.60;95238.44;5007830;28;20233;-77
2022/11/01 10:05:04;;;;;;;0.40;0.40;;;24.10;66.70;;;24.23;48.45;95242.97;5017222;28;20289;-77
2022/11/01 10:08:00;;;;;;;0.50;0.50;;;24.10;66.70;;;24.23;48.67;95248.34;5017292;28;20200;-77
2022/11/01 10:10:57;;;;;;;0.50;0.50;;;24.00;66.70;;;24.21;48.41;95243.25;5001162;28;20229;-77
2022/11/01 10:13:58;;;;;;;0.40;0.40;;;24.00;66.70;;;24.20;48.64;95244.31;5026748;28;20305;-77
2022/11/01 10:17:27;;;;;;;0.52;0.52;;;24.00;66.70;;;24.20;48.64;95238.97;4989982;28;20210;-77
2022/11/01 10:19:55;;;;;;;0.60;0.60;;;24.00;66.70;;;24.13;48.51;95222.34;5016295;28;20230;-77
2022/11/01 10:22:35;;;;;;;0.50;0.50;;;24.00;66.70;;;24.14;48.78;95229.31;5000887;28;20298;-77
2022/11/01 10:25:26;;;;;;;0.55;0.55;;;24.00;66.70;;;24.13;48.57;95225.03;4985491;28;20196;-77
2022/11/01 10:28:27;;;;;;;0.60;0.60;;;24.00;66.70;;;24.20;48.51;95230.91;5017360;28;20172;-77
2022/11/01 10:31:04;;;;;;;0.50;0.50;;;24.00;66.60;;;24.18;48.57;95232.25;5034715;28;20258;-77
2022/11/01 10:34:20;;;;;;;0.50;0.50;;;24.00;66.70;;;24.19;48.50;95226.63;5000817;28;20202;-77
2022/11/01 10:36:49;;;;;;;0.73;0.73;;;24.00;66.70;;;24.17;48.93;95234.16;5011357;28;20632;-77
2022/11/01 10:39:32;;;;;;;0.57;0.57;;;24.00;66.60;;;24.22;48.19;95244.06;5000817;28;20215;-77
2022/11/01 10:42:19;;;;;;;0.50;0.50;;;24.00;66.60;;;24.20;48.40;95244.31;5016782;28;20337;-77
2022/11/01 10:45:03;;;;;;;0.50;0.50;;;24.00;66.70;;;24.23;47.96;95245.66;5003963;28;20556;-77
2022/11/01 10:47:30;;;;;;;0.50;0.50;;;24.00;66.70;;;24.24;47.92;95245.41;5004897;28;20243;-77
2022/11/01 10:50:16;;;;;;;0.50;0.50;;;24.00;66.60;;;24.20;48.49;95241.63;5020854;28;20216;-77
2022/11/01 10:53:10;;;;;;;0.60;0.60;;;24.00;66.60;;;24.23;48.17;95251.00;5004627;28;20191;-77
2022/11/01 10:55:56;;;;;;;0.65;0.65;;;24.00;66.70;;;24.23;48.34;95240.28;5020929;28;20219;-77
2022/11/01 10:58:29;;;;;;;0.50;0.50;;;24.00;66.70;;;24.24;48.27;95248.09;5004103;28;20305;-77